Terminal Aerodrome Forecast
Issued by NWS

Home | Current Version | Previous Version | Text Only | Print | Product List | Glossary On
Versions: 1 2 3 4 5 6 7 8 9 10 11 12 13 14 15 16 17 18 19 20 21 22 23 24 25
000
FTUS45 KGJT 290350 AAA
TAFASE
TAF AMD
KASE 290350Z 2904/2924 27008KT P6SM VCSH FEW024 OVC030
      TEMPO 2904/2906 -SHRA OVC025
     FM290600 35004KT P6SM VCSH OVC025
     FM291300 34004KT P6SM VCSH OVC060
     FM291800 35011G20KT P6SM SCT070 SCT120=

USA.gov is the U.S. government's official web portal to all federal, state and local government web resources and services.